sensor_id;sensor_type;location;lat;lon;timestamp;pressure;altitude;pressure_sealevel;temperature;humidity
50632;BME280;49583;45.590;-122.498;2022-11-10T00:02:42;101778.80;;;12.69;44.46
50632;BME280;49583;45.590;-122.498;2022-11-10T00:05:13;101784.23;;;12.61;44.61
50632;BME280;49583;45.590;-122.498;2022-11-10T00:07:45;101790.48;;;12.53;44.80
50632;BME280;49583;45.590;-122.498;2022-11-10T00:10:16;101797.33;;;12.46;44.80
50632;BME280;49583;45.590;-122.498;2022-11-10T00:12:47;101798.04;;;12.39;44.84
50632;BME280;49583;45.590;-122.498;2022-11-10T00:15:20;101801.02;;;12.31;44.98
50632;BME280;49583;45.590;-122.498;2022-11-10T00:18:08;101797.84;;;12.22;45.12
50632;BME280;49583;45.590;-122.498;2022-11-10T00:20:40;101801.89;;;12.14;45.15
50632;BME280;49583;45.590;-122.498;2022-11-10T00:23:11;101804.63;;;12.05;45.16
50632;BME280;49583;45.590;-122.498;2022-11-10T00:25:42;101803.77;;;11.98;45.48
50632;BME280;49583;45.590;-122.498;2022-11-10T00:28:13;101802.59;;;11.91;45.70
50632;BME280;49583;45.590;-122.498;2022-11-10T00:30:44;101804.69;;;11.85;45.74
50632;BME280;49583;45.590;-122.498;2022-11-10T00:33:15;101805.89;;;11.79;45.71
50632;BME280;49583;45.590;-122.498;2022-11-10T00:35:47;101812.83;;;11.70;45.85
50632;BME280;49583;45.590;-122.498;2022-11-10T00:38:18;101809.48;;;11.64;46.02
50632;BME280;49583;45.590;-122.498;2022-11-10T00:40:49;101810.98;;;11.56;46.17
50632;BME280;49583;45.590;-122.498;2022-11-10T00:43:21;101814.98;;;11.47;46.46
50632;BME280;49583;45.590;-122.498;2022-11-10T00:45:53;101815.55;;;11.39;46.64
50632;BME280;49583;45.590;-122.498;2022-11-10T00:48:24;101822.24;;;11.31;46.65
50632;BME280;49583;45.590;-122.498;2022-11-10T00:50:55;101822.86;;;11.24;46.86
50632;BME280;49583;45.590;-122.498;2022-11-10T00:53:26;101823.33;;;11.18;47.09
50632;BME280;49583;45.590;-122.498;2022-11-10T00:55:57;101828.19;;;11.11;47.23
50632;BME280;49583;45.590;-122.498;2022-11-10T00:58:29;101829.08;;;11.06;47.40
50632;BME280;49583;45.590;-122.498;2022-11-10T01:01:05;101832.91;;;10.98;47.80
50632;BME280;49583;45.590;-122.498;2022-11-10T01:03:36;101836.00;;;10.90;48.14
50632;BME280;49583;45.590;-122.498;2022-11-10T01:06:09;101838.75;;;10.83;48.44
50632;BME280;49583;45.590;-122.498;2022-11-10T01:08:42;101840.96;;;10.75;48.84
50632;BME280;49583;45.590;-122.498;2022-11-10T01:11:16;101841.70;;;10.68;49.14
50632;BME280;49583;45.590;-122.498;2022-11-10T01:13:48;101845.84;;;10.62;49.48
50632;BME280;49583;45.590;-122.498;2022-11-10T01:16:21;101847.21;;;10.56;49.64
50632;BME280;49583;45.590;-122.498;2022-11-10T01:18:54;101851.55;;;10.50;49.82
50632;BME280;49583;45.590;-122.498;2022-11-10T01:21:26;101857.30;;;10.44;49.85
50632;BME280;49583;45.590;-122.498;2022-11-10T01:23:58;101858.08;;;10.37;50.34
50632;BME280;49583;45.590;-122.498;2022-11-10T01:26:29;101866.66;;;10.33;50.53
50632;BME280;49583;45.590;-122.498;2022-11-10T01:29:01;101867.38;;;10.30;50.67
50632;BME280;49583;45.590;-122.498;2022-11-10T01:31:34;101871.67;;;10.26;50.72
50632;BME280;49583;45.590;-122.498;2022-11-10T01:34:05;101876.42;;;10.24;51.08
50632;BME280;49583;45.590;-122.498;2022-11-10T01:36:36;101881.73;;;10.19;51.19
50632;BME280;49583;45.590;-122.498;2022-11-10T01:39:08;101878.19;;;10.16;51.11
50632;BME280;49583;45.590;-122.498;2022-11-10T01:41:39;101883.04;;;10.14;51.45
50632;BME280;49583;45.590;-122.498;2022-11-10T01:44:19;101885.78;;;10.12;51.65
50632;BME280;49583;45.590;-122.498;2022-11-10T01:46:50;101890.83;;;10.10;52.00
50632;BME280;49583;45.590;-122.498;2022-11-10T01:49:24;101895.54;;;10.07;52.09
50632;BME280;49583;45.590;-122.498;2022-11-10T01:51:59;101897.04;;;10.03;52.08
50632;BME280;49583;45.590;-122.498;2022-11-10T01:54:34;101897.89;;;9.97;52.55
50632;BME280;49583;45.590;-122.498;2022-11-10T01:57:08;101899.27;;;9.93;52.57
50632;BME280;49583;45.590;-122.498;2022-11-10T01:59:45;101901.83;;;9.91;53.05
50632;BME280;49583;45.590;-122.498;2022-11-10T02:02:23;101902.44;;;9.87;52.92
50632;BME280;49583;45.590;-122.498;2022-11-10T02:04:56;101910.67;;;9.82;53.18
50632;BME280;49583;45.590;-122.498;2022-11-10T02:07:25;101914.16;;;9.79;53.30
50632;BME280;49583;45.590;-122.498;2022-11-10T02:10:00;101918.98;;;9.74;53.43
50632;BME280;49583;45.590;-122.498;2022-11-10T02:12:32;101926.34;;;9.70;53.68
50632;BME280;49583;45.590;-122.498;2022-11-10T02:15:12;101927.38;;;9.64;53.94
50632;BME280;49583;45.590;-122.498;2022-11-10T02:17:47;101929.66;;;9.59;53.94
50632;BME280;49583;45.590;-122.498;2022-11-10T02:20:19;101934.09;;;9.54;53.93
50632;BME280;49583;45.590;-122.498;2022-11-10T02:22:51;101935.81;;;9.50;54.23
50632;BME280;49583;45.590;-122.498;2022-11-10T02:25:23;101940.14;;;9.46;53.97
50632;BME280;49583;45.590;-122.498;2022-11-10T02:27:55;101943.64;;;9.44;54.41
50632;BME280;49583;45.590;-122.498;2022-11-10T02:30:27;101946.42;;;9.41;54.29
50632;BME280;49583;45.590;-122.498;2022-11-10T02:32:58;101955.44;;;9.39;54.87
50632;BME280;49583;45.590;-122.498;2022-11-10T02:35:27;101957.39;;;9.35;54.59
50632;BME280;49583;45.590;-122.498;2022-11-10T02:37:59;101960.28;;;9.31;54.72
50632;BME280;49583;45.590;-122.498;2022-11-10T02:40:30;101963.80;;;9.27;55.02
50632;BME280;49583;45.590;-122.498;2022-11-10T02:43:02;101968.81;;;9.24;55.17
50632;BME280;49583;45.590;-122.498;2022-11-10T02:45:33;101974.52;;;9.21;55.50
50632;BME280;49583;45.590;-122.498;2022-11-10T02:48:10;101978.11;;;9.18;55.59
50632;BME280;49583;45.590;-122.498;2022-11-10T02:50:43;101982.92;;;9.16;55.57
50632;BME280;49583;45.590;-122.498;2022-11-10T02:53:15;101990.06;;;9.15;55.93
50632;BME280;49583;45.590;-122.498;2022-11-10T02:55:46;101992.14;;;9.14;55.94
50632;BME280;49583;45.590;-122.498;2022-11-10T02:58:17;101996.41;;;9.14;55.95
50632;BME280;49583;45.590;-122.498;2022-11-10T03:00:48;101998.42;;;9.13;56.48
50632;BME280;49583;45.590;-122.498;2022-11-10T03:03:19;101998.52;;;9.12;56.22
50632;BME280;49583;45.590;-122.498;2022-11-10T03:05:51;101999.05;;;9.10;56.29
50632;BME280;49583;45.590;-122.498;2022-11-10T03:08:21;102000.00;;;9.08;56.46
50632;BME280;49583;45.590;-122.498;2022-11-10T03:10:54;102003.55;;;9.05;56.72
50632;BME280;49583;45.590;-122.498;2022-11-10T03:13:26;102005.61;;;9.02;56.51
50632;BME280;49583;45.590;-122.498;2022-11-10T03:16:19;102006.05;;;8.99;56.87
50632;BME280;49583;45.590;-122.498;2022-11-10T03:18:49;102014.66;;;8.96;56.91
50632;BME280;49583;45.590;-122.498;2022-11-10T03:21:21;102015.15;;;8.92;57.08
50632;BME280;49583;45.590;-122.498;2022-11-10T03:23:52;102022.17;;;8.89;57.46
50632;BME280;49583;45.590;-122.498;2022-11-10T03:26:23;102022.80;;;8.88;57.40
50632;BME280;49583;45.590;-122.498;2022-11-10T03:28:54;102023.15;;;8.87;57.36
50632;BME280;49583;45.590;-122.498;2022-11-10T03:31:26;102028.38;;;8.87;57.21
50632;BME280;49583;45.590;-122.498;2022-11-10T03:33:56;102032.88;;;8.87;57.38
50632;BME280;49583;45.590;-122.498;2022-11-10T03:36:27;102036.39;;;8.84;57.40
50632;BME280;49583;45.590;-122.498;2022-11-10T03:38:59;102040.67;;;8.82;57.54
50632;BME280;49583;45.590;-122.498;2022-11-10T03:41:30;102040.30;;;8.79;57.54
50632;BME280;49583;45.590;-122.498;2022-11-10T03:44:00;102041.81;;;8.75;57.45
50632;BME280;49583;45.590;-122.498;2022-11-10T03:46:32;102043.52;;;8.72;57.27
50632;BME280;49583;45.590;-122.498;2022-11-10T03:49:04;102045.02;;;8.68;57.54
50632;BME280;49583;45.590;-122.498;2022-11-10T03:51:35;102048.83;;;8.64;57.57
50632;BME280;49583;45.590;-122.498;2022-11-10T03:54:07;102053.85;;;8.62;57.56
50632;BME280;49583;45.590;-122.498;2022-11-10T03:56:37;102055.52;;;8.61;57.75
50632;BME280;49583;45.590;-122.498;2022-11-10T03:59:09;102055.36;;;8.61;57.94
50632;BME280;49583;45.590;-122.498;2022-11-10T04:01:40;102059.02;;;8.62;57.94
50632;BME280;49583;45.590;-122.498;2022-11-10T04:04:12;102058.98;;;8.58;58.29
50632;BME280;49583;45.590;-122.498;2022-11-10T04:07:13;102061.32;;;8.52;58.20
50632;BME280;49583;45.590;-122.498;2022-11-10T04:10:01;102065.37;;;8.47;58.73
50632;BME280;49583;45.590;-122.498;2022-11-10T04:12:32;102074.23;;;8.44;58.98
50632;BME280;49583;45.590;-122.498;2022-11-10T04:15:19;102074.31;;;8.38;59.10
50632;BME280;49583;45.590;-122.498;2022-11-10T04:18:07;102074.31;;;8.32;58.82
50632;BME280;49583;45.590;-122.498;2022-11-10T04:20:52;102074.72;;;8.29;59.20
50632;BME280;49583;45.590;-122.498;2022-11-10T04:23:25;102076.73;;;8.26;58.93
50632;BME280;49583;45.590;-122.498;2022-11-10T04:25:57;102080.96;;;8.24;59.21
50632;BME280;49583;45.590;-122.498;2022-11-10T04:28:46;102085.55;;;8.24;59.18
50632;BME280;49583;45.590;-122.498;2022-11-10T04:31:15;102085.27;;;8.25;59.14
50632;BME280;49583;45.590;-122.498;2022-11-10T04:33:47;102084.16;;;8.26;59.13
50632;BME280;49583;45.590;-122.498;2022-11-10T04:36:20;102087.05;;;8.23;59.19
50632;BME280;49583;45.590;-122.498;2022-11-10T04:38:52;102083.30;;;8.22;59.11
50632;BME280;49583;45.590;-122.498;2022-11-10T04:41:23;102088.98;;;8.20;59.02
50632;BME280;49583;45.590;-122.498;2022-11-10T04:43:54;102090.79;;;8.14;59.28
50632;BME280;49583;45.590;-122.498;2022-11-10T04:46:27;102089.13;;;8.12;59.19
50632;BME280;49583;45.590;-122.498;2022-11-10T04:49:00;102093.08;;;8.07;59.12
50632;BME280;49583;45.590;-122.498;2022-11-10T04:51:33;102089.66;;;8.03;59.06
50632;BME280;49583;45.590;-122.498;2022-11-10T04:54:05;102092.09;;;8.01;59.17
50632;BME280;49583;45.590;-122.498;2022-11-10T04:56:37;102100.98;;;7.98;59.26
50632;BME280;49583;45.590;-122.498;2022-11-10T04:59:10;102109.19;;;7.95;59.06
50632;BME280;49583;45.590;-122.498;2022-11-10T05:01:41;102109.41;;;7.90;59.33
50632;BME280;49583;45.590;-122.498;2022-11-10T05:04:13;102114.27;;;7.87;59.42
50632;BME280;49583;45.590;-122.498;2022-11-10T05:06:44;102120.73;;;7.86;59.49
50632;BME280;49583;45.590;-122.498;2022-11-10T05:09:16;102124.27;;;7.84;59.47
50632;BME280;49583;45.590;-122.498;2022-11-10T05:11:47;102123.92;;;7.82;59.74
50632;BME280;49583;45.590;-122.498;2022-11-10T05:14:19;102125.70;;;7.83;59.89
50632;BME280;49583;45.590;-122.498;2022-11-10T05:16:50;102131.54;;;7.83;59.94
50632;BME280;49583;45.590;-122.498;2022-11-10T05:19:23;102134.83;;;7.80;59.98
50632;BME280;49583;45.590;-122.498;2022-11-10T05:21:54;102139.73;;;7.78;59.96
50632;BME280;49583;45.590;-122.498;2022-11-10T05:24:26;102137.63;;;7.74;60.23
50632;BME280;49583;45.590;-122.498;2022-11-10T05:26:58;102134.45;;;7.72;60.08
50632;BME280;49583;45.590;-122.498;2022-11-10T05:29:29;102134.13;;;7.69;60.19
50632;BME280;49583;45.590;-122.498;2022-11-10T05:32:01;102136.88;;;7.67;60.34
50632;BME280;49583;45.590;-122.498;2022-11-10T05:34:32;102141.98;;;7.64;60.39
50632;BME280;49583;45.590;-122.498;2022-11-10T05:37:04;102147.58;;;7.62;60.43
50632;BME280;49583;45.590;-122.498;2022-11-10T05:39:34;102144.56;;;7.58;60.33
50632;BME280;49583;45.590;-122.498;2022-11-10T05:42:07;102147.36;;;7.54;60.45
50632;BME280;49583;45.590;-122.498;2022-11-10T05:44:38;102147.27;;;7.50;60.43
50632;BME280;49583;45.590;-122.498;2022-11-10T05:47:09;102150.74;;;7.45;60.48
50632;BME280;49583;45.590;-122.498;2022-11-10T05:49:41;102150.14;;;7.40;60.56
50632;BME280;49583;45.590;-122.498;2022-11-10T05:52:12;102150.92;;;7.36;60.67
50632;BME280;49583;45.590;-122.498;2022-11-10T05:54:43;102152.79;;;7.33;60.80
50632;BME280;49583;45.590;-122.498;2022-11-10T05:57:15;102152.34;;;7.29;60.80
50632;BME280;49583;45.590;-122.498;2022-11-10T05:59:46;102151.16;;;7.26;60.91
50632;BME280;49583;45.590;-122.498;2022-11-10T06:02:17;102152.85;;;7.23;60.91
50632;BME280;49583;45.590;-122.498;2022-11-10T06:04:49;102150.17;;;7.20;61.05
50632;BME280;49583;45.590;-122.498;2022-11-10T06:07:20;102151.17;;;7.17;61.19
50632;BME280;49583;45.590;-122.498;2022-11-10T06:09:52;102155.29;;;7.15;61.10
50632;BME280;49583;45.590;-122.498;2022-11-10T06:12:23;102156.55;;;7.12;61.16
50632;BME280;49583;45.590;-122.498;2022-11-10T06:14:58;102158.90;;;7.08;61.24
50632;BME280;49583;45.590;-122.498;2022-11-10T06:17:27;102164.23;;;7.04;61.30
50632;BME280;49583;45.590;-122.498;2022-11-10T06:19:58;102167.64;;;7.00;61.41
50632;BME280;49583;45.590;-122.498;2022-11-10T06:22:30;102172.15;;;6.95;61.84
50632;BME280;49583;45.590;-122.498;2022-11-10T06:25:01;102176.41;;;6.94;62.03
50632;BME280;49583;45.590;-122.498;2022-11-10T06:27:32;102180.20;;;6.92;62.16
50632;BME280;49583;45.590;-122.498;2022-11-10T06:30:04;102181.38;;;6.90;62.32
50632;BME280;49583;45.590;-122.498;2022-11-10T06:32:35;102179.32;;;6.89;62.47
50632;BME280;49583;45.590;-122.498;2022-11-10T06:35:04;102180.31;;;6.89;62.47
50632;BME280;49583;45.590;-122.498;2022-11-10T06:37:36;102180.83;;;6.88;62.55
50632;BME280;49583;45.590;-122.498;2022-11-10T06:40:13;102180.73;;;6.87;62.50
50632;BME280;49583;45.590;-122.498;2022-11-10T06:42:44;102180.39;;;6.84;62.61
50632;BME280;49583;45.590;-122.498;2022-11-10T06:45:15;102181.39;;;6.83;62.63
50632;BME280;49583;45.590;-122.498;2022-11-10T06:47:47;102179.17;;;6.79;62.73
50632;BME280;49583;45.590;-122.498;2022-11-10T06:50:19;102179.48;;;6.76;62.87
50632;BME280;49583;45.590;-122.498;2022-11-10T06:52:57;102179.02;;;6.73;63.03
50632;BME280;49583;45.590;-122.498;2022-11-10T06:55:28;102179.48;;;6.70;63.08
50632;BME280;49583;45.590;-122.498;2022-11-10T06:57:59;102184.89;;;6.69;63.20
50632;BME280;49583;45.590;-122.498;2022-11-10T07:00:31;102188.44;;;6.67;63.42
50632;BME280;49583;45.590;-122.498;2022-11-10T07:03:03;102188.52;;;6.64;63.47
50632;BME280;49583;45.590;-122.498;2022-11-10T07:05:35;102198.43;;;6.63;63.88
50632;BME280;49583;45.590;-122.498;2022-11-10T07:08:07;102199.27;;;6.61;64.11
50632;BME280;49583;45.590;-122.498;2022-11-10T07:10:41;102201.63;;;6.60;64.26
50632;BME280;49583;45.590;-122.498;2022-11-10T07:13:12;102203.52;;;6.60;64.53
50632;BME280;49583;45.590;-122.498;2022-11-10T07:15:43;102204.73;;;6.58;64.66
50632;BME280;49583;45.590;-122.498;2022-11-10T07:18:15;102212.04;;;6.58;64.76
50632;BME280;49583;45.590;-122.498;2022-11-10T07:20:47;102217.77;;;6.58;64.84
50632;BME280;49583;45.590;-122.498;2022-11-10T07:23:19;102221.60;;;6.57;64.90
50632;BME280;49583;45.590;-122.498;2022-11-10T07:25:50;102227.44;;;6.56;64.82
50632;BME280;49583;45.590;-122.498;2022-11-10T07:28:21;102228.87;;;6.54;64.80
50632;BME280;49583;45.590;-122.498;2022-11-10T07:30:56;102229.79;;;6.51;64.96
50632;BME280;49583;45.590;-122.498;2022-11-10T07:33:27;102233.11;;;6.47;64.94
50632;BME280;49583;45.590;-122.498;2022-11-10T07:36:00;102239.13;;;6.45;65.09
50632;BME280;49583;45.590;-122.498;2022-11-10T07:38:33;102243.18;;;6.43;65.13
50632;BME280;49583;45.590;-122.498;2022-11-10T07:41:04;102241.00;;;6.39;65.12
50632;BME280;49583;45.590;-122.498;2022-11-10T07:43:35;102242.93;;;6.34;65.12
50632;BME280;49583;45.590;-122.498;2022-11-10T07:46:07;102248.46;;;6.31;65.24
50632;BME280;49583;45.590;-122.498;2022-11-10T07:48:39;102249.52;;;6.28;65.56
50632;BME280;49583;45.590;-122.498;2022-11-10T07:51:10;102252.46;;;6.25;65.46
50632;BME280;49583;45.590;-122.498;2022-11-10T07:53:41;102249.70;;;6.22;65.48
50632;BME280;49583;45.590;-122.498;2022-11-10T07:56:12;102252.00;;;6.21;65.60
50632;BME280;49583;45.590;-122.498;2022-11-10T07:58:43;102251.61;;;6.19;65.49
50632;BME280;49583;45.590;-122.498;2022-11-10T08:01:14;102253.42;;;6.18;65.58
50632;BME280;49583;45.590;-122.498;2022-11-10T08:03:45;102258.40;;;6.15;65.76
50632;BME280;49583;45.590;-122.498;2022-11-10T08:06:17;102261.55;;;6.10;65.55
50632;BME280;49583;45.590;-122.498;2022-11-10T08:08:49;102261.45;;;6.05;65.49
50632;BME280;49583;45.590;-122.498;2022-11-10T08:11:22;102260.98;;;5.99;65.28
50632;BME280;49583;45.590;-122.498;2022-11-10T08:13:52;102267.91;;;5.93;65.12
50632;BME280;49583;45.590;-122.498;2022-11-10T08:16:23;102267.97;;;5.86;65.32
50632;BME280;49583;45.590;-122.498;2022-11-10T08:18:55;102266.34;;;5.79;65.11
50632;BME280;49583;45.590;-122.498;2022-11-10T08:21:28;102267.84;;;5.71;65.18
50632;BME280;49583;45.590;-122.498;2022-11-10T08:23:59;102272.41;;;5.64;65.08
50632;BME280;49583;45.590;-122.498;2022-11-10T08:26:30;102269.27;;;5.58;65.35
50632;BME280;49583;45.590;-122.498;2022-11-10T08:29:02;102266.93;;;5.52;65.12
50632;BME280;49583;45.590;-122.498;2022-11-10T08:31:33;102267.92;;;5.45;65.41
50632;BME280;49583;45.590;-122.498;2022-11-10T08:34:06;102273.71;;;5.36;65.32
50632;BME280;49583;45.590;-122.498;2022-11-10T08:36:37;102278.13;;;5.28;65.10
50632;BME280;49583;45.590;-122.498;2022-11-10T08:39:08;102274.66;;;5.20;65.36
50632;BME280;49583;45.590;-122.498;2022-11-10T08:42:00;102272.55;;;5.12;65.29
50632;BME280;49583;45.590;-122.498;2022-11-10T08:44:32;102268.04;;;5.06;65.41
50632;BME280;49583;45.590;-122.498;2022-11-10T08:47:03;102267.44;;;4.99;65.45
50632;BME280;49583;45.590;-122.498;2022-11-10T08:49:34;102272.75;;;4.94;65.53
50632;BME280;49583;45.590;-122.498;2022-11-10T08:52:07;102278.38;;;4.88;65.58
50632;BME280;49583;45.590;-122.498;2022-11-10T08:54:38;102279.50;;;4.81;65.48
50632;BME280;49583;45.590;-122.498;2022-11-10T08:57:10;102284.13;;;4.74;65.61
50632;BME280;49583;45.590;-122.498;2022-11-10T08:59:42;102282.09;;;4.67;65.81
50632;BME280;49583;45.590;-122.498;2022-11-10T09:02:13;102280.23;;;4.62;65.84
50632;BME280;49583;45.590;-122.498;2022-11-10T09:04:45;102286.17;;;4.56;66.05
50632;BME280;49583;45.590;-122.498;2022-11-10T09:07:18;102291.48;;;4.50;66.17
50632;BME280;49583;45.590;-122.498;2022-11-10T09:09:50;102293.82;;;4.44;66.20
50632;BME280;49583;45.590;-122.498;2022-11-10T09:12:34;102295.55;;;4.38;66.11
50632;BME280;49583;45.590;-122.498;2022-11-10T09:15:07;102295.13;;;4.33;66.37
50632;BME280;49583;45.590;-122.498;2022-11-10T09:17:40;102291.34;;;4.29;66.18
50632;BME280;49583;45.590;-122.498;2022-11-10T09:20:12;102297.39;;;4.24;66.42
50632;BME280;49583;45.590;-122.498;2022-11-10T09:22:43;102297.89;;;4.19;66.43
50632;BME280;49583;45.590;-122.498;2022-11-10T09:25:14;102305.17;;;4.14;66.60
50632;BME280;49583;45.590;-122.498;2022-11-10T09:27:46;102307.32;;;4.09;66.65
50632;BME280;49583;45.590;-122.498;2022-11-10T09:30:17;102304.55;;;4.04;66.67
50632;BME280;49583;45.590;-122.498;2022-11-10T09:32:48;102309.06;;;4.00;66.72
50632;BME280;49583;45.590;-122.498;2022-11-10T09:35:24;102312.59;;;3.98;66.91
50632;BME280;49583;45.590;-122.498;2022-11-10T09:37:56;102321.27;;;3.96;66.98
50632;BME280;49583;45.590;-122.498;2022-11-10T09:40:32;102326.33;;;3.94;67.04
50632;BME280;49583;45.590;-122.498;2022-11-10T09:43:14;102331.15;;;3.92;66.99
50632;BME280;49583;45.590;-122.498;2022-11-10T09:45:50;102332.06;;;3.90;67.06
50632;BME280;49583;45.590;-122.498;2022-11-10T09:48:27;102337.17;;;3.87;67.38
50632;BME280;49583;45.590;-122.498;2022-11-10T09:51:01;102335.50;;;3.84;67.27
50632;BME280;49583;45.590;-122.498;2022-11-10T09:53:40;102338.15;;;3.82;67.34
50632;BME280;49583;45.590;-122.498;2022-11-10T09:56:15;102338.59;;;3.79;67.34
50632;BME280;49583;45.590;-122.498;2022-11-10T09:58:50;102340.67;;;3.77;67.54
50632;BME280;49583;45.590;-122.498;2022-11-10T10:01:31;102342.48;;;3.73;67.44
50632;BME280;49583;45.590;-122.498;2022-11-10T10:04:15;102349.07;;;3.70;67.71
50632;BME280;49583;45.590;-122.498;2022-11-10T10:06:54;102353.41;;;3.69;67.93
50632;BME280;49583;45.590;-122.498;2022-11-10T10:09:45;102353.30;;;3.69;67.84
50632;BME280;49583;45.590;-122.498;2022-11-10T10:12:36;102356.38;;;3.68;67.88
50632;BME280;49583;45.590;-122.498;2022-11-10T10:15:20;102355.89;;;3.67;68.06
50632;BME280;49583;45.590;-122.498;2022-11-10T10:18:03;102355.99;;;3.67;68.34
50632;BME280;49583;45.590;-122.498;2022-11-10T10:20:41;102362.77;;;3.66;68.31
50632;BME280;49583;45.590;-122.498;2022-11-10T10:23:22;102363.31;;;3.66;68.35
50632;BME280;49583;45.590;-122.498;2022-11-10T10:26:18;102363.32;;;3.68;68.62
50632;BME280;49583;45.590;-122.498;2022-11-10T10:28:52;102358.39;;;3.69;68.71
50632;BME280;49583;45.590;-122.498;2022-11-10T10:31:31;102356.00;;;3.70;68.74
50632;BME280;49583;45.590;-122.498;2022-11-10T10:34:03;102354.44;;;3.71;68.80
50632;BME280;49583;45.590;-122.498;2022-11-10T10:36:38;102349.71;;;3.72;68.80
50632;BME280;49583;45.590;-122.498;2022-11-10T10:39:12;102336.04;;;3.72;68.98
50632;BME280;49583;45.590;-122.498;2022-11-10T10:41:46;102337.95;;;3.74;69.25
50632;BME280;49583;45.590;-122.498;2022-11-10T10:44:18;102341.30;;;3.74;69.21
50632;BME280;49583;45.590;-122.498;2022-11-10T10:46:53;102337.89;;;3.73;68.90
50632;BME280;49583;45.590;-122.498;2022-11-10T10:49:26;102336.65;;;3.72;69.14
50632;BME280;49583;45.590;-122.498;2022-11-10T10:52:13;102338.91;;;3.72;68.85
50632;BME280;49583;45.590;-122.498;2022-11-10T10:54:45;102338.42;;;3.73;69.17
50632;BME280;49583;45.590;-122.498;2022-11-10T10:57:24;102342.66;;;3.73;69.27
50632;BME280;49583;45.590;-122.498;2022-11-10T11:00:16;102341.36;;;3.76;69.57
50632;BME280;49583;45.590;-122.498;2022-11-10T11:03:03;102342.98;;;3.79;69.84
50632;BME280;49583;45.590;-122.498;2022-11-10T11:05:34;102340.75;;;3.80;70.19
50632;BME280;49583;45.590;-122.498;2022-11-10T11:08:07;102340.70;;;3.81;70.44
50632;BME280;49583;45.590;-122.498;2022-11-10T11:10:47;102339.35;;;3.84;70.60
50632;BME280;49583;45.590;-122.498;2022-11-10T11:13:23;102340.33;;;3.87;70.92
50632;BME280;49583;45.590;-122.498;2022-11-10T11:16:02;102341.88;;;3.89;70.94
50632;BME280;49583;45.590;-122.498;2022-11-10T11:18:36;102342.92;;;3.92;71.07
50632;BME280;49583;45.590;-122.498;2022-11-10T11:21:14;102345.61;;;3.96;71.62
50632;BME280;49583;45.590;-122.498;2022-11-10T11:24:06;102348.16;;;3.99;71.58
50632;BME280;49583;45.590;-122.498;2022-11-10T11:26:47;102353.17;;;4.05;71.67
50632;BME280;49583;45.590;-122.498;2022-11-10T11:29:35;102349.44;;;4.10;72.05
50632;BME280;49583;45.590;-122.498;2022-11-10T11:32:30;102346.11;;;4.14;72.27
50632;BME280;49583;45.590;-122.498;2022-11-10T11:35:13;102351.30;;;4.19;72.43
50632;BME280;49583;45.590;-122.498;2022-11-10T11:37:53;102350.16;;;4.24;72.34
50632;BME280;49583;45.590;-122.498;2022-11-10T11:40:36;102350.40;;;4.30;72.49
50632;BME280;49583;45.590;-122.498;2022-11-10T11:43:20;102349.70;;;4.33;72.53
50632;BME280;49583;45.590;-122.498;2022-11-10T11:45:58;102353.04;;;4.36;72.71
50632;BME280;49583;45.590;-122.498;2022-11-10T11:48:45;102354.08;;;4.40;72.72
50632;BME280;49583;45.590;-122.498;2022-11-10T11:51:24;102354.48;;;4.43;72.80
50632;BME280;49583;45.590;-122.498;2022-11-10T11:54:19;102344.50;;;4.45;72.92
50632;BME280;49583;45.590;-122.498;2022-11-10T11:56:54;102352.96;;;4.47;72.71
50632;BME280;49583;45.590;-122.498;2022-11-10T11:59:49;102359.43;;;4.50;72.95
50632;BME280;49583;45.590;-122.498;2022-11-10T12:02:50;102358.73;;;4.53;72.67
50632;BME280;49583;45.590;-122.498;2022-11-10T12:05:48;102350.48;;;4.51;72.72
50632;BME280;49583;45.590;-122.498;2022-11-10T12:08:31;102345.90;;;4.49;72.69
50632;BME280;49583;45.590;-122.498;2022-11-10T12:11:12;102351.00;;;4.48;72.64
50632;BME280;49583;45.590;-122.498;2022-11-10T12:13:54;102349.42;;;4.47;72.51
50632;BME280;49583;45.590;-122.498;2022-11-10T12:16:28;102353.67;;;4.46;72.65
50632;BME280;49583;45.590;-122.498;2022-11-10T12:19:11;102359.20;;;4.46;72.56
50632;BME280;49583;45.590;-122.498;2022-11-10T12:21:53;102361.48;;;4.47;72.84
50632;BME280;49583;45.590;-122.498;2022-11-10T12:24:39;102361.47;;;4.48;72.99
50632;BME280;49583;45.590;-122.498;2022-11-10T12:27:16;102348.08;;;4.48;72.67
50632;BME280;49583;45.590;-122.498;2022-11-10T12:29:52;102345.41;;;4.46;73.05
50632;BME280;49583;45.590;-122.498;2022-11-10T12:32:27;102342.54;;;4.43;72.79
50632;BME280;49583;45.590;-122.498;2022-11-10T12:35:04;102353.73;;;4.41;72.92
50632;BME280;49583;45.590;-122.498;2022-11-10T12:37:41;102360.79;;;4.40;73.04
50632;BME280;49583;45.590;-122.498;2022-11-10T12:40:18;102360.45;;;4.42;73.34
50632;BME280;49583;45.590;-122.498;2022-11-10T12:42:54;102359.63;;;4.45;73.29
50632;BME280;49583;45.590;-122.498;2022-11-10T12:45:31;102365.11;;;4.48;73.33
50632;BME280;49583;45.590;-122.498;2022-11-10T12:48:06;102363.67;;;4.50;73.37
50632;BME280;49583;45.590;-122.498;2022-11-10T12:50:45;102359.70;;;4.53;73.46
50632;BME280;49583;45.590;-122.498;2022-11-10T12:53:21;102357.37;;;4.55;73.42
50632;BME280;49583;45.590;-122.498;2022-11-10T12:55:57;102353.45;;;4.57;73.43
50632;BME280;49583;45.590;-122.498;2022-11-10T12:58:30;102360.27;;;4.59;73.24
50632;BME280;49583;45.590;-122.498;2022-11-10T13:01:02;102363.80;;;4.60;73.54
50632;BME280;49583;45.590;-122.498;2022-11-10T13:03:35;102367.33;;;4.61;73.40
50632;BME280;49583;45.590;-122.498;2022-11-10T13:06:24;102361.79;;;4.61;73.30